createdAt,value
2024-02-03T00:00:35.235Z,28.14
2024-02-03T00:01:35.206Z,28.11
2024-02-03T00:02:35.184Z,28.16
2024-02-03T00:03:35.254Z,28.13
2024-02-03T00:04:35.168Z,28.11
2024-02-03T00:05:35.106Z,28.10
2024-02-03T00:06:35.231Z,28.14
2024-02-03T00:07:35.103Z,28.14
2024-02-03T00:08:35.177Z,28.14
2024-02-03T00:09:35.185Z,28.13
2024-02-03T00:10:35.141Z,28.06
2024-02-03T00:11:35.202Z,28.11
2024-02-03T00:12:35.293Z,28.10
2024-02-03T00:13:35.300Z,28.13
2024-02-03T00:14:36.250Z,28.16
2024-02-03T00:15:35.425Z,28.12
2024-02-03T00:16:35.416Z,28.16
2024-02-03T00:17:35.512Z,28.12
2024-02-03T00:18:35.616Z,28.09
2024-02-03T00:19:35.708Z,28.10
2024-02-03T00:20:35.650Z,28.13
2024-02-03T00:21:35.684Z,28.12
2024-02-03T00:22:35.755Z,28.08
2024-02-03T00:23:35.741Z,28.12
2024-02-03T00:24:35.791Z,28.10
2024-02-03T00:25:36.265Z,28.13
2024-02-03T00:26:35.861Z,28.09
2024-02-03T00:27:35.992Z,28.14
2024-02-03T00:28:35.970Z,28.14
2024-02-03T00:29:36.032Z,28.12
2024-02-03T00:30:36.087Z,28.09
2024-02-03T00:31:36.106Z,28.12
2024-02-03T00:32:36.151Z,28.16
2024-02-03T00:33:36.179Z,28.12
2024-02-03T00:34:36.537Z,28.13
2024-02-03T00:35:36.167Z,28.12
2024-02-03T00:36:36.313Z,28.14
2024-02-03T00:37:36.293Z,28.12
2024-02-03T00:38:36.347Z,28.15
2024-02-03T00:39:36.381Z,28.08
2024-02-03T00:40:36.403Z,28.10
2024-02-03T00:41:36.418Z,28.10
2024-02-03T00:42:36.498Z,28.09
2024-02-03T00:43:36.487Z,28.09
2024-02-03T00:44:36.502Z,28.09
2024-02-03T00:45:36.547Z,28.10
2024-02-03T00:46:36.554Z,28.08
2024-02-03T00:47:36.556Z,28.12
2024-02-03T00:48:36.724Z,28.11
2024-02-03T00:49:36.659Z,28.09
2024-02-03T00:50:36.677Z,28.15
2024-02-03T00:51:36.882Z,28.11
2024-02-03T00:52:36.682Z,28.09
2024-02-03T00:53:36.688Z,28.07
2024-02-03T00:54:36.724Z,28.09
2024-02-03T00:55:36.772Z,28.07
2024-02-03T00:56:36.768Z,28.10
2024-02-03T00:57:36.834Z,28.06
2024-02-03T00:58:36.795Z,28.08
2024-02-03T00:59:36.801Z,28.11
2024-02-03T01:00:36.971Z,28.10
2024-02-03T01:01:36.952Z,28.08
2024-02-03T01:02:36.924Z,28.13
2024-02-03T01:03:37.155Z,28.14
2024-02-03T01:04:37.036Z,28.12
2024-02-03T01:05:37.087Z,28.12
2024-02-03T01:06:37.134Z,28.06
2024-02-03T01:07:37.086Z,28.10
2024-02-03T01:08:37.118Z,28.07
2024-02-03T01:09:37.130Z,28.08
2024-02-03T01:10:37.116Z,28.07
2024-02-03T01:11:37.286Z,28.08
2024-02-03T01:12:37.192Z,28.09
2024-02-03T01:13:37.170Z,28.10
2024-02-03T01:14:37.221Z,28.10
2024-02-03T01:15:37.275Z,28.08
2024-02-03T01:16:37.166Z,28.06
2024-02-03T01:17:37.179Z,28.06
2024-02-03T01:18:37.366Z,28.09
2024-02-03T01:19:37.378Z,28.08
2024-02-03T01:20:37.225Z,28.07
2024-02-03T01:21:37.388Z,28.05
2024-02-03T01:22:37.284Z,28.09
2024-02-03T01:23:37.210Z,28.14
2024-02-03T01:24:37.426Z,28.04
2024-02-03T01:25:37.246Z,28.09
2024-02-03T01:26:37.313Z,28.12
2024-02-03T01:27:37.499Z,28.06
2024-02-03T01:28:37.273Z,28.02
2024-02-03T01:29:37.266Z,28.06
2024-02-03T01:30:37.278Z,28.10
2024-02-03T01:31:37.268Z,28.11
2024-02-03T01:32:37.292Z,28.10
2024-02-03T01:33:37.474Z,28.11
2024-02-03T01:34:37.456Z,28.07
2024-02-03T01:35:37.302Z,28.09
2024-02-03T01:36:37.349Z,28.07
2024-02-03T01:37:37.308Z,28.06
2024-02-03T01:38:37.320Z,28.08
2024-02-03T01:39:37.362Z,28.10
2024-02-03T01:40:37.316Z,28.07
2024-02-03T01:41:37.427Z,28.06
2024-02-03T01:42:37.423Z,28.09
2024-02-03T01:43:37.414Z,28.10
2024-02-03T01:44:37.388Z,28.07
2024-02-03T01:45:37.477Z,28.11
2024-02-03T01:46:37.431Z,28.11
2024-02-03T01:47:37.452Z,28.08
2024-02-03T01:48:37.588Z,28.08
2024-02-03T01:49:37.644Z,28.07
2024-02-03T01:50:37.450Z,28.02
2024-02-03T01:51:37.486Z,28.09
2024-02-03T01:52:37.449Z,28.07
2024-02-03T01:53:37.511Z,28.05
2024-02-03T01:54:37.574Z,28.02
2024-02-03T01:55:37.499Z,28.06
2024-02-03T01:56:37.525Z,28.07
2024-02-03T01:57:37.671Z,28.04
2024-02-03T01:58:37.530Z,28.05
2024-02-03T01:59:37.527Z,28.02
2024-02-03T02:00:37.629Z,28.02
2024-02-03T02:01:37.582Z,28.03
2024-02-03T02:02:37.561Z,28.04
2024-02-03T02:03:37.627Z,28.05
2024-02-03T02:04:37.646Z,28.06
2024-02-03T02:05:37.613Z,28.08
2024-02-03T02:06:37.646Z,28.09
2024-02-03T02:07:37.580Z,28.07
2024-02-03T02:08:37.576Z,28.08
2024-02-03T02:09:37.679Z,28.06
2024-02-03T02:10:37.625Z,28.03
2024-02-03T02:11:37.635Z,28.04
2024-02-03T02:12:37.693Z,28.07
2024-02-03T02:13:37.652Z,28.10
2024-02-03T02:14:37.631Z,28.06
2024-02-03T02:15:37.826Z,27.99
2024-02-03T02:16:37.668Z,28.00
2024-02-03T02:17:37.762Z,28.04
2024-02-03T02:18:37.755Z,28.06
2024-02-03T02:19:37.749Z,28.05
2024-02-03T02:20:37.699Z,28.04
2024-02-03T02:21:37.715Z,28.04
2024-02-03T02:22:37.709Z,28.03
2024-02-03T02:23:37.766Z,28.01
2024-02-03T02:24:37.732Z,28.04
2024-02-03T02:25:37.708Z,28.06
2024-02-03T02:26:37.713Z,28.04
2024-02-03T02:27:37.759Z,28.05
2024-02-03T02:28:37.773Z,28.05
2024-02-03T02:29:37.846Z,28.08
2024-02-03T02:30:37.835Z,28.08
2024-02-03T02:31:37.787Z,28.07
2024-02-03T02:32:37.877Z,28.06
2024-02-03T02:33:37.884Z,28.02
2024-02-03T02:34:37.918Z,28.02
2024-02-03T02:35:37.886Z,28.05
2024-02-03T02:36:37.894Z,28.03
2024-02-03T02:37:37.797Z,28.05
2024-02-03T02:38:37.841Z,28.05
2024-02-03T02:39:37.919Z,28.06
2024-02-03T02:40:37.863Z,28.04
2024-02-03T02:41:37.878Z,28.08
2024-02-03T02:42:37.965Z,28.00
2024-02-03T02:43:37.870Z,28.06
2024-02-03T02:44:38.284Z,27.98
2024-02-03T02:45:37.934Z,28.00
2024-02-03T02:46:38.778Z,28.01
2024-02-03T02:47:37.992Z,28.07
2024-02-03T02:48:38.942Z,28.08
2024-02-03T02:49:38.100Z,28.05
2024-02-03T02:50:38.412Z,28.03
2024-02-03T02:51:38.018Z,27.99
2024-02-03T02:52:37.978Z,27.99
2024-02-03T02:53:38.006Z,28.02
2024-02-03T02:54:38.042Z,28.03
2024-02-03T02:55:38.028Z,27.99
2024-02-03T02:56:38.027Z,28.03
2024-02-03T02:57:38.058Z,28.07
2024-02-03T02:58:38.029Z,28.03
2024-02-03T02:59:38.060Z,28.05
2024-02-03T03:00:38.178Z,28.19
2024-02-03T03:01:38.128Z,28.05
2024-02-03T03:02:38.095Z,28.03
2024-02-03T03:03:38.216Z,28.05
2024-02-03T03:04:38.250Z,28.01
2024-02-03T03:05:38.150Z,28.02
2024-02-03T03:06:38.198Z,27.97
2024-02-03T03:07:38.849Z,28.02
2024-02-03T03:08:38.307Z,27.95
2024-02-03T03:09:38.209Z,28.00
2024-02-03T03:10:38.181Z,28.02
2024-02-03T03:11:38.273Z,28.01
2024-02-03T03:12:38.361Z,27.99
2024-02-03T03:13:38.315Z,28.02
2024-02-03T03:14:38.264Z,28.00
2024-02-03T03:15:38.384Z,27.99
2024-02-03T03:16:38.409Z,28.03
2024-02-03T03:17:38.338Z,28.01
2024-02-03T03:18:38.526Z,28.01
2024-02-03T03:19:38.671Z,28.00
2024-02-03T03:20:38.505Z,28.03
2024-02-03T03:21:38.519Z,28.01
2024-02-03T03:22:38.531Z,28.02
2024-02-03T03:23:38.544Z,28.21
2024-02-03T03:24:38.414Z,28.14
2024-02-03T03:25:38.544Z,28.01
2024-02-03T03:26:38.552Z,28.02
2024-02-03T03:27:38.468Z,27.99
2024-02-03T03:28:38.551Z,28.00
2024-02-03T03:29:38.559Z,28.03
2024-02-03T03:30:38.615Z,28.04
2024-02-03T03:31:38.578Z,28.00
2024-02-03T03:32:38.663Z,28.00
2024-02-03T03:33:38.805Z,27.99
2024-02-03T03:34:38.720Z,27.97
2024-02-03T03:35:38.673Z,28.04
2024-02-03T03:36:38.730Z,28.02
2024-02-03T03:37:38.636Z,28.01
2024-02-03T03:38:38.628Z,28.02
2024-02-03T03:39:38.724Z,28.03
2024-02-03T03:40:38.840Z,28.00
2024-02-03T03:41:38.735Z,27.96
2024-02-03T03:42:38.818Z,27.97
2024-02-03T03:43:38.744Z,28.03
2024-02-03T03:44:38.835Z,28.05
2024-02-03T03:45:38.882Z,28.07
2024-02-03T03:46:38.833Z,28.06
2024-02-03T03:47:38.919Z,28.04
2024-02-03T03:48:39.091Z,28.02
2024-02-03T03:49:39.009Z,28.03
2024-02-03T03:50:38.902Z,27.99
2024-02-03T03:51:38.965Z,27.99
2024-02-03T03:52:38.947Z,28.09
2024-02-03T03:53:39.042Z,28.07
2024-02-03T03:54:39.494Z,28.07
2024-02-03T03:55:39.042Z,27.99
2024-02-03T03:56:39.124Z,27.96
2024-02-03T03:57:39.123Z,28.06
2024-02-03T03:58:39.122Z,28.00
2024-02-03T03:59:39.101Z,28.05
2024-02-03T04:00:39.270Z,28.01
2024-02-03T04:01:39.153Z,27.98
2024-02-03T04:02:39.193Z,28.04
2024-02-03T04:03:39.349Z,28.04
2024-02-03T04:04:39.238Z,28.05
2024-02-03T04:05:39.279Z,28.26
2024-02-03T04:06:39.388Z,28.07
2024-02-03T04:07:39.332Z,28.18
2024-02-03T04:08:39.281Z,28.10
2024-02-03T04:09:39.441Z,28.04
2024-02-03T04:10:39.394Z,28.06
2024-02-03T04:11:39.373Z,28.06
2024-02-03T04:12:39.440Z,28.08
2024-02-03T04:13:39.437Z,28.03
2024-02-03T04:14:39.440Z,28.14
2024-02-03T04:15:39.557Z,28.07
2024-02-03T04:16:39.478Z,28.04
2024-02-03T04:17:39.526Z,28.02
2024-02-03T04:18:39.675Z,28.02
2024-02-03T04:19:39.649Z,28.02
2024-02-03T04:20:39.607Z,28.05
2024-02-03T04:21:39.652Z,28.12
2024-02-03T04:22:39.645Z,28.04
2024-02-03T04:23:39.622Z,28.06
2024-02-03T04:24:39.697Z,28.08
2024-02-03T04:25:39.634Z,28.09
2024-02-03T04:26:39.713Z,28.04
2024-02-03T04:27:39.746Z,28.11
2024-02-03T04:28:39.726Z,28.10
2024-02-03T04:29:39.781Z,28.04
2024-02-03T04:30:39.804Z,28.19
2024-02-03T04:31:39.867Z,28.05
2024-02-03T04:32:39.850Z,28.08
2024-02-03T04:33:47.156Z,28.33
2024-02-03T04:34:47.231Z,28.14
2024-02-03T04:35:47.089Z,28.09
2024-02-03T04:36:47.144Z,28.12
2024-02-03T04:37:47.251Z,28.03
2024-02-03T04:38:47.108Z,28.08
2024-02-03T04:39:47.153Z,28.12
2024-02-03T04:40:47.138Z,28.16
2024-02-03T04:41:47.115Z,28.18
2024-02-03T04:42:47.159Z,28.18
2024-02-03T04:43:47.148Z,28.10
2024-02-03T04:44:47.121Z,28.12
2024-02-03T04:45:47.141Z,29.03
2024-02-03T04:46:49.080Z,28.16
2024-02-03T04:47:47.130Z,28.43
2024-02-03T04:48:47.214Z,28.39
2024-02-03T04:49:47.224Z,28.20
2024-02-03T04:50:47.122Z,28.12
2024-02-03T04:51:47.241Z,28.18
2024-02-03T04:52:47.114Z,28.32
2024-02-03T04:53:47.236Z,28.22
2024-02-03T04:54:47.270Z,28.15
2024-02-03T04:55:47.111Z,28.09
2024-02-03T04:56:47.136Z,28.10
2024-02-03T04:57:47.209Z,28.07
2024-02-03T04:58:47.176Z,28.09
2024-02-03T04:59:47.213Z,28.12
2024-02-03T05:00:47.359Z,28.26
2024-02-03T05:01:47.886Z,28.28
2024-02-03T05:02:47.298Z,28.20
2024-02-03T05:03:47.472Z,28.08
2024-02-03T05:04:47.476Z,28.46
2024-02-03T05:05:47.457Z,28.07
2024-02-03T05:06:47.472Z,28.22
2024-02-03T05:07:47.504Z,28.15
2024-02-03T05:08:49.801Z,28.11
2024-02-03T05:09:47.843Z,28.17
2024-02-03T05:10:47.629Z,28.11
2024-02-03T05:11:47.690Z,28.17
2024-02-03T05:12:47.747Z,28.15
2024-02-03T05:13:47.738Z,28.21
2024-02-03T05:14:47.815Z,28.11
2024-02-03T05:15:47.915Z,28.21
2024-02-03T05:16:47.876Z,28.19
2024-02-03T05:17:47.929Z,28.24
2024-02-03T05:18:47.984Z,28.13
2024-02-03T05:19:48.137Z,28.13
2024-02-03T05:20:47.999Z,28.12
2024-02-03T05:21:48.125Z,28.14
2024-02-03T05:22:48.029Z,28.20
2024-02-03T05:23:48.025Z,28.14
2024-02-03T05:24:48.158Z,28.34
2024-02-03T05:25:49.692Z,28.40
2024-02-03T05:26:48.164Z,28.22
2024-02-03T05:27:48.189Z,28.15
2024-02-03T05:28:48.107Z,28.27
2024-02-03T05:29:48.107Z,28.17
2024-02-03T05:30:48.163Z,28.12
2024-02-03T05:31:48.239Z,28.31
2024-02-03T05:32:48.267Z,28.19
2024-02-03T05:33:48.186Z,28.15
2024-02-03T05:34:48.364Z,28.14
2024-02-03T05:35:48.122Z,28.17
2024-02-03T05:36:48.207Z,28.08
2024-02-03T05:37:48.165Z,28.23
2024-02-03T05:38:48.185Z,28.03
2024-02-03T05:39:48.286Z,28.10
2024-02-03T05:40:48.138Z,28.08
2024-02-03T05:41:48.141Z,28.20
2024-02-03T05:42:48.198Z,28.16
2024-02-03T05:43:48.154Z,28.05
2024-02-03T05:44:48.112Z,27.98
2024-02-03T05:45:48.214Z,28.26
2024-02-03T05:46:48.164Z,28.07
2024-02-03T05:47:48.199Z,28.10
2024-02-03T05:48:48.402Z,28.51
2024-02-03T05:49:48.245Z,28.11
2024-02-03T05:50:48.164Z,28.24
2024-02-03T05:51:48.248Z,28.19
2024-02-03T05:52:48.198Z,28.14
2024-02-03T05:53:48.173Z,28.26
2024-02-03T05:54:48.281Z,28.68
2024-02-03T05:55:48.127Z,28.33
2024-02-03T05:56:48.198Z,28.45
2024-02-03T05:57:48.245Z,28.43
2024-02-03T05:58:48.253Z,28.59
2024-02-03T05:59:51.393Z,28.16
2024-02-03T06:00:48.237Z,28.27
2024-02-03T06:01:48.210Z,28.32
2024-02-03T06:02:48.206Z,28.21
2024-02-03T06:03:48.289Z,28.22
2024-02-03T06:04:48.339Z,28.33
2024-02-03T06:05:59.384Z,28.25
2024-02-03T06:06:49.503Z,28.18
2024-02-03T06:07:48.238Z,28.06
2024-02-03T06:08:48.157Z,28.25
2024-02-03T06:09:48.280Z,28.18
2024-02-03T06:10:48.248Z,28.10
2024-02-03T06:11:48.181Z,28.05
2024-02-03T06:12:48.277Z,28.15
2024-02-03T06:13:48.183Z,28.04
2024-02-03T06:14:48.296Z,28.33
2024-02-03T06:15:48.335Z,28.17
2024-02-03T06:16:48.224Z,28.38
2024-02-03T06:17:48.198Z,28.20
2024-02-03T06:18:48.264Z,28.81
2024-02-03T06:19:48.264Z,28.32
2024-02-03T06:20:48.209Z,28.66
2024-02-03T06:21:48.376Z,28.27
2024-02-03T06:22:48.386Z,28.27
2024-02-03T06:23:48.335Z,28.89
2024-02-03T06:24:48.472Z,28.12
2024-02-03T06:25:48.438Z,28.26
2024-02-03T06:26:48.467Z,28.18
2024-02-03T06:27:48.564Z,28.01
2024-02-03T06:28:48.493Z,28.19
2024-02-03T06:29:48.587Z,28.18
2024-02-03T06:30:48.635Z,28.23
2024-02-03T06:31:48.652Z,28.20
2024-02-03T06:32:48.684Z,28.36
2024-02-03T06:33:49.317Z,28.25
2024-02-03T06:34:48.787Z,28.36
2024-02-03T06:35:48.781Z,28.45
2024-02-03T06:36:48.924Z,28.33
2024-02-03T06:37:48.833Z,28.41
2024-02-03T06:38:48.871Z,28.51
2024-02-03T06:39:49.016Z,28.74
2024-02-03T06:40:48.940Z,28.50
2024-02-03T06:41:49.014Z,28.56
2024-02-03T06:42:49.061Z,28.15
2024-02-03T06:43:49.031Z,28.08
2024-02-03T06:44:50.566Z,28.42
2024-02-03T06:45:49.256Z,28.17
2024-02-03T06:46:49.190Z,28.21
2024-02-03T06:47:49.119Z,28.09
2024-02-03T06:48:49.269Z,27.99
2024-02-03T06:49:49.207Z,28.19
2024-02-03T06:50:49.135Z,27.99
2024-02-03T06:51:49.266Z,27.97
2024-02-03T06:52:49.183Z,28.12
2024-02-03T06:53:49.095Z,28.24
2024-02-03T06:54:49.177Z,28.25
2024-02-03T06:55:49.121Z,28.50
2024-02-03T06:56:49.089Z,28.43
2024-02-03T06:57:49.180Z,28.14
2024-02-03T06:58:49.134Z,28.04
2024-02-03T06:59:51.336Z,28.09
2024-02-03T07:00:49.145Z,28.06
2024-02-03T07:01:49.241Z,28.06
2024-02-03T07:02:49.162Z,28.32
2024-02-03T07:03:49.343Z,28.01
2024-02-03T07:04:49.297Z,28.08
2024-02-03T07:05:49.333Z,28.07
2024-02-03T07:06:49.444Z,27.98
2024-02-03T07:07:49.401Z,28.03
2024-02-03T07:08:50.246Z,27.98
2024-02-03T07:09:49.572Z,28.14
2024-02-03T07:10:49.570Z,28.04
2024-02-03T07:11:57.156Z,28.28
2024-02-03T07:12:50.624Z,28.11
2024-02-03T07:13:49.622Z,28.00
2024-02-03T07:14:49.589Z,28.17
2024-02-03T07:15:49.569Z,28.54
2024-02-03T07:16:49.658Z,28.54
2024-02-03T07:17:49.593Z,28.51
2024-02-03T07:18:49.725Z,28.22
2024-02-03T07:19:49.728Z,28.15
2024-02-03T07:20:49.583Z,28.05
2024-02-03T07:21:49.585Z,28.17
2024-02-03T07:22:49.565Z,28.79
2024-02-03T07:23:49.623Z,28.22
2024-02-03T07:24:49.691Z,28.09
2024-02-03T07:25:49.670Z,28.38
2024-02-03T07:26:49.691Z,28.21
2024-02-03T07:27:49.959Z,28.02
2024-02-03T07:28:49.777Z,28.09
2024-02-03T07:29:49.797Z,28.15
2024-02-03T07:30:49.932Z,28.18
2024-02-03T07:31:49.897Z,27.93
2024-02-03T07:32:49.998Z,28.05
2024-02-03T07:33:50.064Z,28.19
2024-02-03T07:34:51.003Z,28.01
2024-02-03T07:35:50.205Z,28.62
2024-02-03T07:36:50.208Z,28.43
2024-02-03T07:37:50.137Z,28.17
2024-02-03T07:38:50.174Z,28.54
2024-02-03T07:39:50.293Z,28.14
2024-02-03T07:40:50.282Z,28.12
2024-02-03T07:41:50.349Z,28.15
2024-02-03T07:42:50.446Z,28.67
2024-02-03T07:43:50.538Z,28.03
2024-02-03T07:44:50.448Z,28.61
2024-02-03T07:45:50.634Z,28.21
2024-02-03T07:46:50.607Z,28.02
2024-02-03T07:47:50.675Z,28.10
2024-02-03T07:48:50.780Z,28.21
2024-02-03T07:49:50.852Z,28.26
2024-02-03T07:50:50.742Z,28.16
2024-02-03T07:51:50.913Z,28.08
2024-02-03T07:52:50.773Z,28.12
2024-02-03T07:53:50.895Z,27.98
2024-02-03T07:54:51.011Z,28.05
2024-02-03T07:55:50.980Z,28.28
2024-02-03T07:56:50.987Z,28.02
2024-02-03T07:57:51.554Z,28.09
2024-02-03T07:58:51.109Z,28.11
2024-02-03T07:59:51.233Z,28.21
2024-02-03T08:00:51.197Z,28.02
2024-02-03T08:01:51.268Z,28.34
2024-02-03T08:02:51.335Z,28.31
2024-02-03T08:03:51.522Z,28.14
2024-02-03T08:04:51.456Z,28.20
2024-02-03T08:05:51.413Z,28.18
2024-02-03T08:06:51.425Z,28.26
2024-02-03T08:07:51.501Z,28.04
2024-02-03T08:08:51.505Z,28.27
2024-02-03T08:09:51.699Z,27.96
2024-02-03T08:10:51.593Z,27.46
2024-02-03T08:11:51.593Z,26.82
2024-02-03T08:12:51.672Z,26.10
2024-02-03T08:13:51.649Z,25.49
2024-02-03T08:14:51.725Z,25.08
2024-02-03T08:15:51.769Z,25.33
2024-02-03T08:16:51.751Z,24.63
2024-02-03T08:17:51.810Z,24.24
2024-02-03T08:18:51.918Z,23.22
2024-02-03T08:19:51.915Z,23.06
2024-02-03T08:20:52.127Z,23.11
2024-02-03T08:21:52.030Z,22.90
2024-02-03T08:22:52.082Z,22.76
2024-02-03T08:23:52.102Z,22.48
2024-02-03T08:24:52.164Z,22.29
2024-02-03T08:25:52.204Z,22.43
2024-02-03T08:26:52.145Z,22.27
2024-02-03T08:27:52.214Z,22.01
2024-02-03T08:28:52.236Z,21.88
2024-02-03T08:29:52.284Z,22.22
2024-02-03T08:30:52.405Z,22.42
2024-02-03T08:31:52.419Z,22.14
2024-02-03T08:32:52.537Z,22.37
2024-02-03T08:33:52.625Z,22.53
2024-02-03T08:35:52.747Z,23.60
2024-02-03T08:36:52.634Z,24.27
2024-02-03T08:37:52.543Z,25.04
2024-02-03T08:38:52.540Z,25.15
2024-02-03T08:39:52.591Z,25.42
2024-02-03T08:40:52.598Z,25.52
2024-02-03T08:41:52.546Z,25.87
2024-02-03T08:42:52.625Z,25.71
2024-02-03T08:43:52.544Z,25.72
2024-02-03T08:44:52.702Z,25.16
2024-02-03T08:45:52.564Z,24.85
2024-02-03T08:46:52.523Z,24.81
2024-02-03T08:47:52.815Z,24.76
2024-02-03T08:48:52.665Z,24.57
2024-02-03T08:49:52.601Z,24.65
2024-02-03T08:50:52.542Z,24.89
2024-02-03T08:51:52.591Z,25.17
2024-02-03T08:52:52.605Z,25.05
2024-02-03T08:53:52.538Z,25.27
2024-02-03T08:54:52.567Z,25.52
2024-02-03T08:55:52.564Z,25.70
2024-02-03T08:56:52.557Z,25.76
2024-02-03T08:57:52.715Z,25.87
2024-02-03T08:58:52.581Z,25.91
2024-02-03T08:59:52.681Z,26.11
2024-02-03T09:00:52.635Z,26.66
2024-02-03T09:01:52.599Z,26.32
2024-02-03T09:02:52.703Z,26.40
2024-02-03T09:03:54.538Z,26.73
2024-02-03T09:04:52.680Z,26.47
2024-02-03T09:05:52.611Z,26.82
2024-02-03T09:06:52.956Z,27.47
2024-02-03T09:07:52.612Z,26.89
2024-02-03T09:08:52.677Z,26.72
2024-02-03T09:09:52.665Z,26.73
2024-02-03T09:10:52.651Z,26.89
2024-02-03T09:11:52.616Z,27.10
2024-02-03T09:12:52.644Z,27.32
2024-02-03T09:13:52.565Z,27.48
2024-02-03T09:14:52.657Z,27.52
2024-02-03T09:15:52.810Z,27.62
2024-02-03T09:16:52.652Z,27.03
2024-02-03T09:17:52.688Z,27.28
2024-02-03T09:18:52.713Z,27.95
2024-02-03T09:19:52.774Z,27.89
2024-02-03T09:20:52.621Z,26.74
2024-02-03T09:21:52.958Z,26.36
2024-02-03T09:22:52.702Z,26.82
2024-02-03T09:23:52.853Z,26.46
2024-02-03T09:24:52.789Z,26.84
2024-02-03T09:25:52.684Z,26.61
2024-02-03T09:26:52.724Z,26.74
2024-02-03T09:27:52.858Z,26.82
2024-02-03T09:28:52.744Z,26.40
2024-02-03T09:29:52.848Z,26.36
2024-02-03T09:30:53.423Z,26.27
2024-02-03T09:31:52.758Z,26.25
2024-02-03T09:32:52.812Z,26.35
2024-02-03T09:33:53.112Z,26.19
2024-02-03T09:34:52.823Z,26.26
2024-02-03T09:35:52.811Z,26.56
2024-02-03T09:37:52.829Z,26.21
2024-02-03T09:38:52.919Z,26.22
2024-02-03T09:39:52.920Z,26.17
2024-02-03T09:40:52.862Z,26.24
2024-02-03T09:41:52.868Z,26.22
2024-02-03T09:42:52.944Z,26.22
2024-02-03T09:43:52.854Z,26.23
2024-02-03T09:44:52.782Z,26.24
2024-02-03T09:45:52.907Z,26.22
2024-02-03T09:46:52.795Z,26.20
2024-02-03T09:47:52.858Z,26.22
2024-02-03T09:48:52.862Z,26.26
2024-02-03T09:49:52.826Z,26.25
2024-02-03T09:50:52.830Z,26.26
2024-02-03T09:51:52.938Z,26.26
2024-02-03T09:52:52.802Z,26.27
2024-02-03T09:53:52.848Z,26.23
2024-02-03T09:54:52.882Z,26.24
2024-02-03T09:55:52.830Z,26.27
2024-02-03T09:56:52.877Z,26.23
2024-02-03T09:57:52.947Z,26.27
2024-02-03T09:58:52.789Z,26.29
2024-02-03T09:59:52.832Z,26.31
2024-02-03T10:00:52.947Z,26.37
2024-02-03T10:01:52.876Z,26.27
2024-02-03T10:02:52.826Z,26.30
2024-02-03T10:03:52.986Z,26.32
2024-02-03T10:04:52.852Z,26.35
2024-02-03T10:05:53.444Z,26.38
2024-02-03T10:06:52.843Z,26.45
2024-02-03T10:07:52.822Z,26.51
2024-02-03T10:08:52.830Z,26.52
2024-02-03T10:10:52.936Z,26.57
2024-02-03T10:11:53.142Z,26.61
2024-02-03T10:12:52.976Z,26.61
2024-02-03T10:13:52.826Z,26.67
2024-02-03T10:14:52.858Z,26.66
2024-02-03T10:15:52.901Z,26.67
2024-02-03T10:16:52.882Z,26.73
2024-02-03T10:17:52.899Z,26.70
2024-02-03T10:18:52.932Z,26.75
2024-02-03T10:19:52.922Z,26.75
2024-02-03T10:20:52.829Z,26.82
2024-02-03T10:21:52.875Z,26.76
2024-02-03T10:22:52.824Z,26.76
2024-02-03T10:23:52.846Z,26.77
2024-02-03T10:24:52.920Z,26.79
2024-02-03T10:25:52.849Z,26.83
2024-02-03T10:26:52.842Z,26.78
2024-02-03T10:27:52.949Z,26.88
2024-02-03T10:28:52.855Z,26.84
2024-02-03T10:29:52.963Z,26.84
2024-02-03T10:30:52.927Z,26.83
2024-02-03T10:31:52.850Z,26.85
2024-02-03T10:32:52.870Z,26.86
2024-02-03T10:33:52.917Z,26.86
2024-02-03T10:34:52.932Z,26.84
2024-02-03T10:35:52.846Z,26.82
2024-02-03T10:36:52.887Z,26.81
2024-02-03T10:37:52.835Z,26.84
2024-02-03T10:38:52.868Z,26.86
2024-02-03T10:39:52.981Z,26.86
2024-02-03T10:40:52.892Z,26.83
2024-02-03T10:41:53.012Z,26.83
2024-02-03T10:42:53.139Z,26.78
2024-02-03T10:43:53.102Z,26.81
2024-02-03T10:44:53.231Z,26.86
2024-02-03T10:45:53.314Z,26.87
2024-02-03T10:46:53.295Z,26.82
2024-02-03T10:47:53.409Z,26.87
2024-02-03T10:48:53.514Z,26.87
2024-02-03T10:49:53.559Z,26.86
2024-02-03T10:50:53.549Z,26.88
2024-02-03T10:51:53.786Z,26.83
2024-02-03T10:52:53.711Z,26.85
2024-02-03T10:53:53.849Z,26.90
2024-02-03T10:54:53.815Z,26.87
2024-02-03T10:55:53.935Z,26.86
2024-02-03T10:56:53.974Z,26.85
2024-02-03T10:57:54.217Z,26.82
2024-02-03T10:58:54.211Z,26.78
2024-02-03T10:59:54.195Z,26.77
2024-02-03T11:00:54.380Z,26.77
2024-02-03T11:01:54.270Z,26.74
2024-02-03T11:02:54.383Z,26.74
2024-02-03T11:03:54.463Z,26.78
2024-02-03T11:04:54.571Z,26.79
2024-02-03T11:05:54.604Z,26.83
2024-02-03T11:06:54.742Z,26.81
2024-02-03T11:07:54.722Z,26.78
2024-02-03T11:08:54.785Z,26.78
2024-02-03T11:09:54.976Z,26.76
2024-02-03T11:10:54.890Z,26.77
2024-02-03T11:11:55.006Z,26.76
2024-02-03T11:12:55.022Z,26.73
2024-02-03T11:13:55.079Z,26.79
2024-02-03T11:14:55.201Z,26.78
2024-02-03T11:15:55.290Z,26.79
2024-02-03T11:16:56.036Z,26.79
2024-02-03T11:17:55.336Z,26.81
2024-02-03T11:18:55.613Z,26.83
2024-02-03T11:19:55.547Z,26.78
2024-02-03T11:20:55.462Z,26.81
2024-02-03T11:21:55.592Z,26.79
2024-02-03T11:22:56.862Z,26.77
2024-02-03T11:23:55.656Z,26.83
2024-02-03T11:24:55.800Z,26.82
2024-02-03T11:25:55.785Z,26.75
2024-02-03T11:26:55.826Z,26.79
2024-02-03T11:27:55.938Z,26.79
2024-02-03T11:28:57.502Z,26.84
2024-02-03T11:29:55.946Z,26.88
2024-02-03T11:30:55.998Z,26.78
2024-02-03T11:31:55.959Z,26.82
2024-02-03T11:32:56.072Z,26.78
2024-02-03T11:33:56.229Z,26.83
2024-02-03T11:34:58.461Z,26.83
2024-02-03T11:35:55.949Z,26.86
2024-02-03T11:36:57.032Z,26.90
2024-02-03T11:37:56.075Z,26.88
2024-02-03T11:38:55.972Z,26.88
2024-02-03T11:39:56.080Z,26.90
2024-02-03T11:40:57.458Z,26.87
2024-02-03T11:41:55.981Z,26.86
2024-02-03T11:42:56.026Z,26.88
2024-02-03T11:43:55.958Z,26.86
2024-02-03T11:44:56.088Z,26.84
2024-02-03T11:45:56.053Z,26.84
2024-02-03T11:46:57.216Z,26.83
2024-02-03T11:47:55.997Z,26.83
2024-02-03T11:48:56.088Z,26.88
2024-02-03T11:49:56.126Z,26.87
2024-02-03T11:50:56.066Z,26.88
2024-02-03T11:51:56.068Z,26.89
2024-02-03T11:52:56.001Z,26.85
2024-02-03T11:53:56.028Z,26.83
2024-02-03T11:54:56.219Z,26.81
2024-02-03T11:55:56.222Z,26.85
2024-02-03T11:56:56.225Z,26.81
2024-02-03T11:57:56.419Z,26.81
2024-02-03T11:58:56.327Z,26.84
2024-02-03T11:59:56.413Z,26.85
2024-02-03T12:00:56.509Z,26.87
2024-02-03T12:01:56.486Z,26.90
2024-02-03T12:02:56.589Z,26.89
2024-02-03T12:03:56.631Z,26.82
2024-02-03T12:04:56.896Z,26.85
2024-02-03T12:05:56.669Z,26.80
2024-02-03T12:06:56.817Z,26.89
2024-02-03T12:07:56.880Z,26.90
2024-02-03T12:08:56.819Z,26.87
2024-02-03T12:09:57.115Z,26.88
2024-02-03T12:10:58.136Z,26.86
2024-02-03T12:11:57.091Z,26.88
2024-02-03T12:12:57.229Z,26.93
2024-02-03T12:13:57.032Z,26.96
2024-02-03T12:14:57.046Z,26.90
2024-02-03T12:15:57.196Z,26.94
2024-02-03T12:16:57.385Z,26.94
2024-02-03T12:17:57.281Z,26.91
2024-02-03T12:18:57.437Z,26.94
2024-02-03T12:19:57.355Z,26.91
2024-02-03T12:20:57.287Z,26.92
2024-02-03T12:21:57.484Z,26.93
2024-02-03T12:22:57.330Z,26.86
2024-02-03T12:23:58.011Z,26.88
2024-02-03T12:24:57.554Z,26.88
2024-02-03T12:25:57.621Z,26.90
2024-02-03T12:26:57.447Z,26.90
2024-02-03T12:27:57.611Z,26.87
2024-02-03T12:28:57.604Z,26.91
2024-02-03T12:29:58.553Z,26.92
2024-02-03T12:30:57.658Z,26.89
2024-02-03T12:31:57.602Z,26.88
2024-02-03T12:32:57.736Z,26.92
2024-02-03T12:33:57.821Z,26.99
2024-02-03T12:34:57.885Z,27.00
2024-02-03T12:35:57.783Z,26.98
2024-02-03T12:36:58.140Z,26.95
2024-02-03T12:37:58.523Z,26.98
2024-02-03T12:38:57.964Z,26.94
2024-02-03T12:39:58.070Z,26.91
2024-02-03T12:40:57.981Z,26.99
2024-02-03T12:41:58.067Z,26.93
2024-02-03T12:42:58.136Z,26.97
2024-02-03T12:43:58.444Z,26.96
2024-02-03T12:44:58.041Z,27.01
2024-02-03T12:45:58.150Z,26.94
2024-02-03T12:46:58.102Z,26.92
2024-02-03T12:47:58.137Z,26.94
2024-02-03T12:48:58.203Z,26.95
2024-02-03T12:49:58.367Z,26.98
2024-02-03T12:50:58.304Z,26.99
2024-02-03T12:51:58.362Z,26.95
2024-02-03T12:52:58.232Z,26.92
2024-02-03T12:53:58.457Z,26.92
2024-02-03T12:54:58.347Z,26.95
2024-02-03T12:55:58.375Z,26.93